sensor_id;sensor_type;location;lat;lon;timestamp;P1;durP1;ratioP1;P2;durP2;ratioP2
27163;SDS011;14685;50.618;7.024;2023-10-08T00:01:04;9.75;;;3.95;;
27163;SDS011;14685;50.618;7.024;2023-10-08T00:03:32;8.13;;;3.88;;
27163;SDS011;14685;50.618;7.024;2023-10-08T00:06:04;8.15;;;4.20;;
27163;SDS011;14685;50.618;7.024;2023-10-08T00:08:39;8.75;;;3.70;;
27163;SDS011;14685;50.618;7.024;2023-10-08T00:11:06;9.57;;;4.07;;
27163;SDS011;14685;50.618;7.024;2023-10-08T00:13:37;7.40;;;3.88;;
27163;SDS011;14685;50.618;7.024;2023-10-08T00:16:12;8.60;;;4.28;;
27163;SDS011;14685;50.618;7.024;2023-10-08T00:18:44;9.77;;;3.95;;
27163;SDS011;14685;50.618;7.024;2023-10-08T00:21:19;8.70;;;4.00;;
27163;SDS011;14685;50.618;7.024;2023-10-08T00:23:55;7.47;;;3.92;;
27163;SDS011;14685;50.618;7.024;2023-10-08T00:26:26;8.25;;;3.85;;
27163;SDS011;14685;50.618;7.024;2023-10-08T00:28:57;8.25;;;3.97;;
27163;SDS011;14685;50.618;7.024;2023-10-08T00:31:33;10.93;;;4.47;;
27163;SDS011;14685;50.618;7.024;2023-10-08T00:34:08;6.55;;;3.70;;
27163;SDS011;14685;50.618;7.024;2023-10-08T00:36:41;8.43;;;4.07;;
27163;SDS011;14685;50.618;7.024;2023-10-08T00:39:11;6.28;;;3.80;;
27163;SDS011;14685;50.618;7.024;2023-10-08T00:41:50;8.85;;;4.30;;
27163;SDS011;14685;50.618;7.024;2023-10-08T00:44:26;6.47;;;3.97;;
27163;SDS011;14685;50.618;7.024;2023-10-08T00:46:56;6.85;;;3.55;;
27163;SDS011;14685;50.618;7.024;2023-10-08T00:49:29;9.85;;;3.85;;
27163;SDS011;14685;50.618;7.024;2023-10-08T00:52:14;8.57;;;3.85;;
27163;SDS011;14685;50.618;7.024;2023-10-08T00:54:42;12.00;;;4.38;;
27163;SDS011;14685;50.618;7.024;2023-10-08T00:57:33;10.38;;;4.22;;
27163;SDS011;14685;50.618;7.024;2023-10-08T01:00:08;8.63;;;4.03;;
27163;SDS011;14685;50.618;7.024;2023-10-08T01:02:47;7.53;;;4.38;;
27163;SDS011;14685;50.618;7.024;2023-10-08T01:08:01;7.32;;;4.18;;
27163;SDS011;14685;50.618;7.024;2023-10-08T01:10:32;12.07;;;3.80;;
27163;SDS011;14685;50.618;7.024;2023-10-08T01:13:01;10.27;;;4.45;;
27163;SDS011;14685;50.618;7.024;2023-10-08T01:15:33;7.88;;;3.95;;
27163;SDS011;14685;50.618;7.024;2023-10-08T01:18:08;11.43;;;4.55;;
27163;SDS011;14685;50.618;7.024;2023-10-08T01:20:41;10.20;;;4.00;;
27163;SDS011;14685;50.618;7.024;2023-10-08T01:23:11;6.75;;;4.05;;
27163;SDS011;14685;50.618;7.024;2023-10-08T01:25:43;11.57;;;4.05;;
27163;SDS011;14685;50.618;7.024;2023-10-08T01:28:24;9.90;;;4.60;;
27163;SDS011;14685;50.618;7.024;2023-10-08T01:30:53;9.43;;;3.95;;
27163;SDS011;14685;50.618;7.024;2023-10-08T01:33:21;7.82;;;3.55;;
27163;SDS011;14685;50.618;7.024;2023-10-08T01:35:49;8.63;;;4.10;;
27163;SDS011;14685;50.618;7.024;2023-10-08T01:38:16;9.63;;;4.10;;
27163;SDS011;14685;50.618;7.024;2023-10-08T01:40:50;6.75;;;3.72;;
27163;SDS011;14685;50.618;7.024;2023-10-08T01:43:17;13.05;;;4.18;;
27163;SDS011;14685;50.618;7.024;2023-10-08T01:45:45;5.85;;;3.47;;
27163;SDS011;14685;50.618;7.024;2023-10-08T01:48:17;10.43;;;4.45;;
27163;SDS011;14685;50.618;7.024;2023-10-08T01:50:55;8.38;;;3.90;;
27163;SDS011;14685;50.618;7.024;2023-10-08T01:53:25;7.10;;;3.65;;
27163;SDS011;14685;50.618;7.024;2023-10-08T01:55:57;6.10;;;3.97;;
27163;SDS011;14685;50.618;7.024;2023-10-08T01:58:25;10.43;;;4.07;;
27163;SDS011;14685;50.618;7.024;2023-10-08T02:00:53;8.25;;;4.00;;
27163;SDS011;14685;50.618;7.024;2023-10-08T02:03:25;7.40;;;3.17;;
27163;SDS011;14685;50.618;7.024;2023-10-08T02:05:54;8.82;;;3.88;;
27163;SDS011;14685;50.618;7.024;2023-10-08T02:08:25;6.85;;;3.78;;
27163;SDS011;14685;50.618;7.024;2023-10-08T02:10:56;7.43;;;4.22;;
27163;SDS011;14685;50.618;7.024;2023-10-08T02:13:23;7.32;;;3.40;;
27163;SDS011;14685;50.618;7.024;2023-10-08T02:15:51;9.32;;;4.22;;
27163;SDS011;14685;50.618;7.024;2023-10-08T02:18:20;7.32;;;3.30;;
27163;SDS011;14685;50.618;7.024;2023-10-08T02:20:50;6.80;;;3.88;;
27163;SDS011;14685;50.618;7.024;2023-10-08T02:23:19;7.60;;;3.90;;
27163;SDS011;14685;50.618;7.024;2023-10-08T02:25:46;7.10;;;3.60;;
27163;SDS011;14685;50.618;7.024;2023-10-08T02:28:14;9.50;;;3.63;;
27163;SDS011;14685;50.618;7.024;2023-10-08T02:30:43;5.88;;;3.70;;
27163;SDS011;14685;50.618;7.024;2023-10-08T02:33:10;8.77;;;4.30;;
27163;SDS011;14685;50.618;7.024;2023-10-08T02:35:44;9.80;;;3.72;;
27163;SDS011;14685;50.618;7.024;2023-10-08T02:38:16;9.80;;;3.88;;
27163;SDS011;14685;50.618;7.024;2023-10-08T02:40:48;6.95;;;3.58;;
27163;SDS011;14685;50.618;7.024;2023-10-08T02:43:15;8.60;;;3.70;;
27163;SDS011;14685;50.618;7.024;2023-10-08T02:45:44;6.45;;;3.75;;
27163;SDS011;14685;50.618;7.024;2023-10-08T02:48:17;9.70;;;3.72;;
27163;SDS011;14685;50.618;7.024;2023-10-08T02:50:45;6.53;;;3.47;;
27163;SDS011;14685;50.618;7.024;2023-10-08T02:53:12;11.35;;;3.88;;
27163;SDS011;14685;50.618;7.024;2023-10-08T02:55:44;9.32;;;3.92;;
27163;SDS011;14685;50.618;7.024;2023-10-08T02:58:13;6.05;;;3.40;;
27163;SDS011;14685;50.618;7.024;2023-10-08T03:00:42;7.10;;;3.67;;
27163;SDS011;14685;50.618;7.024;2023-10-08T03:03:09;8.27;;;3.78;;
27163;SDS011;14685;50.618;7.024;2023-10-08T03:05:46;8.48;;;3.85;;
27163;SDS011;14685;50.618;7.024;2023-10-08T03:08:18;7.20;;;3.53;;
27163;SDS011;14685;50.618;7.024;2023-10-08T03:10:48;6.85;;;3.60;;
27163;SDS011;14685;50.618;7.024;2023-10-08T03:13:22;7.50;;;3.67;;
27163;SDS011;14685;50.618;7.024;2023-10-08T03:15:52;6.47;;;3.15;;
27163;SDS011;14685;50.618;7.024;2023-10-08T03:18:35;8.02;;;4.30;;
27163;SDS011;14685;50.618;7.024;2023-10-08T03:21:04;7.85;;;3.80;;
27163;SDS011;14685;50.618;7.024;2023-10-08T03:23:32;7.35;;;3.45;;
27163;SDS011;14685;50.618;7.024;2023-10-08T03:26:03;8.15;;;4.10;;
27163;SDS011;14685;50.618;7.024;2023-10-08T03:29:00;10.07;;;4.07;;
27163;SDS011;14685;50.618;7.024;2023-10-08T03:31:32;8.75;;;3.25;;
27163;SDS011;14685;50.618;7.024;2023-10-08T03:34:17;10.98;;;3.72;;
27163;SDS011;14685;50.618;7.024;2023-10-08T03:36:46;10.73;;;3.88;;
27163;SDS011;14685;50.618;7.024;2023-10-08T03:39:17;10.98;;;3.50;;
27163;SDS011;14685;50.618;7.024;2023-10-08T03:41:46;10.05;;;4.10;;
27163;SDS011;14685;50.618;7.024;2023-10-08T03:44:33;9.05;;;4.00;;
27163;SDS011;14685;50.618;7.024;2023-10-08T03:47:04;9.43;;;3.90;;
27163;SDS011;14685;50.618;7.024;2023-10-08T03:49:37;5.85;;;3.80;;
27163;SDS011;14685;50.618;7.024;2023-10-08T03:54:39;7.47;;;3.50;;
27163;SDS011;14685;50.618;7.024;2023-10-08T03:57:14;8.50;;;4.22;;
27163;SDS011;14685;50.618;7.024;2023-10-08T04:00:08;7.38;;;3.47;;
27163;SDS011;14685;50.618;7.024;2023-10-08T04:02:44;8.32;;;4.10;;
27163;SDS011;14685;50.618;7.024;2023-10-08T04:05:22;9.43;;;3.42;;
27163;SDS011;14685;50.618;7.024;2023-10-08T04:07:59;6.13;;;3.58;;
27163;SDS011;14685;50.618;7.024;2023-10-08T04:10:29;8.25;;;3.85;;
27163;SDS011;14685;50.618;7.024;2023-10-08T04:13:15;7.25;;;3.28;;
27163;SDS011;14685;50.618;7.024;2023-10-08T04:15:42;9.07;;;3.40;;
27163;SDS011;14685;50.618;7.024;2023-10-08T04:18:11;8.00;;;3.92;;
27163;SDS011;14685;50.618;7.024;2023-10-08T04:20:40;13.48;;;4.25;;
27163;SDS011;14685;50.618;7.024;2023-10-08T04:23:27;7.25;;;3.53;;
27163;SDS011;14685;50.618;7.024;2023-10-08T04:25:55;9.25;;;4.00;;
27163;SDS011;14685;50.618;7.024;2023-10-08T04:28:25;9.77;;;3.70;;
27163;SDS011;14685;50.618;7.024;2023-10-08T04:30:55;7.78;;;3.90;;
27163;SDS011;14685;50.618;7.024;2023-10-08T04:33:27;9.38;;;3.92;;
27163;SDS011;14685;50.618;7.024;2023-10-08T04:36:00;8.90;;;3.60;;
27163;SDS011;14685;50.618;7.024;2023-10-08T04:38:28;7.05;;;3.72;;
27163;SDS011;14685;50.618;7.024;2023-10-08T04:40:56;8.20;;;3.58;;
27163;SDS011;14685;50.618;7.024;2023-10-08T04:43:28;8.60;;;3.75;;
27163;SDS011;14685;50.618;7.024;2023-10-08T04:45:57;6.80;;;3.72;;
27163;SDS011;14685;50.618;7.024;2023-10-08T04:48:46;6.20;;;3.75;;
27163;SDS011;14685;50.618;7.024;2023-10-08T04:51:13;7.05;;;3.80;;
27163;SDS011;14685;50.618;7.024;2023-10-08T04:53:40;7.07;;;3.45;;
27163;SDS011;14685;50.618;7.024;2023-10-08T04:56:11;6.68;;;3.30;;
27163;SDS011;14685;50.618;7.024;2023-10-08T04:58:45;6.18;;;3.63;;
27163;SDS011;14685;50.618;7.024;2023-10-08T05:01:14;7.50;;;3.60;;
27163;SDS011;14685;50.618;7.024;2023-10-08T05:03:46;7.72;;;3.90;;
27163;SDS011;14685;50.618;7.024;2023-10-08T05:06:32;10.35;;;4.07;;
27163;SDS011;14685;50.618;7.024;2023-10-08T05:09:03;8.90;;;3.85;;
27163;SDS011;14685;50.618;7.024;2023-10-08T05:11:47;11.30;;;4.15;;
27163;SDS011;14685;50.618;7.024;2023-10-08T05:14:21;7.15;;;3.80;;
27163;SDS011;14685;50.618;7.024;2023-10-08T05:17:06;7.30;;;4.03;;
27163;SDS011;14685;50.618;7.024;2023-10-08T05:19:38;9.30;;;3.97;;
27163;SDS011;14685;50.618;7.024;2023-10-08T05:22:13;7.75;;;4.28;;
27163;SDS011;14685;50.618;7.024;2023-10-08T05:24:48;11.30;;;4.97;;
27163;SDS011;14685;50.618;7.024;2023-10-08T05:27:37;8.00;;;4.18;;
27163;SDS011;14685;50.618;7.024;2023-10-08T05:30:17;7.90;;;4.13;;
27163;SDS011;14685;50.618;7.024;2023-10-08T05:33:04;7.03;;;4.07;;
27163;SDS011;14685;50.618;7.024;2023-10-08T05:35:40;6.50;;;3.45;;
27163;SDS011;14685;50.618;7.024;2023-10-08T05:38:16;10.23;;;4.18;;
27163;SDS011;14685;50.618;7.024;2023-10-08T05:41:05;8.35;;;4.18;;
27163;SDS011;14685;50.618;7.024;2023-10-08T05:43:53;6.70;;;3.47;;
27163;SDS011;14685;50.618;7.024;2023-10-08T05:46:44;7.18;;;3.95;;
27163;SDS011;14685;50.618;7.024;2023-10-08T05:51:59;8.43;;;4.25;;
27163;SDS011;14685;50.618;7.024;2023-10-08T05:54:30;7.97;;;3.47;;
27163;SDS011;14685;50.618;7.024;2023-10-08T05:57:02;8.43;;;4.25;;
27163;SDS011;14685;50.618;7.024;2023-10-08T05:59:36;8.60;;;4.40;;
27163;SDS011;14685;50.618;7.024;2023-10-08T06:02:24;7.93;;;4.03;;
27163;SDS011;14685;50.618;7.024;2023-10-08T06:05:00;6.88;;;3.42;;
27163;SDS011;14685;50.618;7.024;2023-10-08T06:07:42;7.43;;;4.32;;
27163;SDS011;14685;50.618;7.024;2023-10-08T06:13:01;9.60;;;3.95;;
27163;SDS011;14685;50.618;7.024;2023-10-08T06:15:51;9.90;;;5.00;;
27163;SDS011;14685;50.618;7.024;2023-10-08T06:18:25;8.00;;;3.95;;
27163;SDS011;14685;50.618;7.024;2023-10-08T06:20:58;7.70;;;4.65;;
27163;SDS011;14685;50.618;7.024;2023-10-08T06:23:27;7.45;;;3.95;;
27163;SDS011;14685;50.618;7.024;2023-10-08T06:25:55;6.93;;;3.85;;
27163;SDS011;14685;50.618;7.024;2023-10-08T06:28:32;12.15;;;5.50;;
27163;SDS011;14685;50.618;7.024;2023-10-08T06:31:02;8.20;;;4.95;;
27163;SDS011;14685;50.618;7.024;2023-10-08T06:33:33;10.93;;;4.32;;
27163;SDS011;14685;50.618;7.024;2023-10-08T06:36:01;11.93;;;4.53;;
27163;SDS011;14685;50.618;7.024;2023-10-08T06:38:29;7.95;;;4.45;;
27163;SDS011;14685;50.618;7.024;2023-10-08T06:41:01;10.10;;;4.25;;
27163;SDS011;14685;50.618;7.024;2023-10-08T06:43:36;8.02;;;4.10;;
27163;SDS011;14685;50.618;7.024;2023-10-08T06:46:04;11.52;;;4.45;;
27163;SDS011;14685;50.618;7.024;2023-10-08T06:48:34;15.52;;;4.30;;
27163;SDS011;14685;50.618;7.024;2023-10-08T06:51:01;9.57;;;4.63;;
27163;SDS011;14685;50.618;7.024;2023-10-08T06:53:40;11.68;;;4.63;;
27163;SDS011;14685;50.618;7.024;2023-10-08T06:56:07;9.30;;;5.03;;
27163;SDS011;14685;50.618;7.024;2023-10-08T06:58:39;9.30;;;4.57;;
27163;SDS011;14685;50.618;7.024;2023-10-08T07:01:11;9.43;;;4.82;;
27163;SDS011;14685;50.618;7.024;2023-10-08T07:03:43;8.38;;;4.25;;
27163;SDS011;14685;50.618;7.024;2023-10-08T07:06:12;10.77;;;4.75;;
27163;SDS011;14685;50.618;7.024;2023-10-08T07:08:58;8.60;;;4.75;;
27163;SDS011;14685;50.618;7.024;2023-10-08T07:11:26;8.73;;;4.43;;
27163;SDS011;14685;50.618;7.024;2023-10-08T07:13:53;8.88;;;4.72;;
27163;SDS011;14685;50.618;7.024;2023-10-08T07:16:21;11.60;;;5.22;;
27163;SDS011;14685;50.618;7.024;2023-10-08T07:18:50;9.98;;;4.95;;
27163;SDS011;14685;50.618;7.024;2023-10-08T07:21:19;15.43;;;5.38;;
27163;SDS011;14685;50.618;7.024;2023-10-08T07:23:53;10.45;;;5.15;;
27163;SDS011;14685;50.618;7.024;2023-10-08T07:26:24;7.82;;;4.65;;
27163;SDS011;14685;50.618;7.024;2023-10-08T07:28:52;9.90;;;4.72;;
27163;SDS011;14685;50.618;7.024;2023-10-08T07:31:20;8.77;;;5.10;;
27163;SDS011;14685;50.618;7.024;2023-10-08T07:33:49;11.15;;;5.53;;
27163;SDS011;14685;50.618;7.024;2023-10-08T07:36:24;8.73;;;4.70;;
27163;SDS011;14685;50.618;7.024;2023-10-08T07:38:53;10.70;;;5.10;;
27163;SDS011;14685;50.618;7.024;2023-10-08T07:41:21;10.77;;;4.90;;
27163;SDS011;14685;50.618;7.024;2023-10-08T07:43:49;8.55;;;4.68;;
27163;SDS011;14685;50.618;7.024;2023-10-08T07:48:56;7.95;;;4.47;;
27163;SDS011;14685;50.618;7.024;2023-10-08T07:51:24;10.52;;;4.85;;
27163;SDS011;14685;50.618;7.024;2023-10-08T07:53:52;12.13;;;5.50;;
27163;SDS011;14685;50.618;7.024;2023-10-08T07:56:22;11.10;;;5.05;;
27163;SDS011;14685;50.618;7.024;2023-10-08T07:58:50;11.35;;;5.20;;
27163;SDS011;14685;50.618;7.024;2023-10-08T08:01:18;9.85;;;5.07;;
27163;SDS011;14685;50.618;7.024;2023-10-08T08:03:47;9.55;;;4.50;;
27163;SDS011;14685;50.618;7.024;2023-10-08T08:06:15;10.55;;;5.32;;
27163;SDS011;14685;50.618;7.024;2023-10-08T08:08:42;9.73;;;5.10;;
27163;SDS011;14685;50.618;7.024;2023-10-08T08:11:10;10.85;;;4.85;;
27163;SDS011;14685;50.618;7.024;2023-10-08T08:13:44;11.73;;;4.75;;
27163;SDS011;14685;50.618;7.024;2023-10-08T08:16:11;9.02;;;4.93;;
27163;SDS011;14685;50.618;7.024;2023-10-08T08:18:44;8.48;;;4.75;;
27163;SDS011;14685;50.618;7.024;2023-10-08T08:21:12;11.95;;;5.20;;
27163;SDS011;14685;50.618;7.024;2023-10-08T08:23:43;11.88;;;4.72;;
27163;SDS011;14685;50.618;7.024;2023-10-08T08:26:17;11.63;;;5.63;;
27163;SDS011;14685;50.618;7.024;2023-10-08T08:28:56;11.57;;;4.78;;
27163;SDS011;14685;50.618;7.024;2023-10-08T08:31:26;9.93;;;5.35;;
27163;SDS011;14685;50.618;7.024;2023-10-08T08:34:02;11.15;;;5.03;;
27163;SDS011;14685;50.618;7.024;2023-10-08T08:36:34;11.43;;;6.32;;
27163;SDS011;14685;50.618;7.024;2023-10-08T08:39:05;12.70;;;5.40;;
27163;SDS011;14685;50.618;7.024;2023-10-08T08:41:37;9.45;;;5.25;;
27163;SDS011;14685;50.618;7.024;2023-10-08T08:44:06;13.40;;;5.68;;
27163;SDS011;14685;50.618;7.024;2023-10-08T08:46:35;11.43;;;5.40;;
27163;SDS011;14685;50.618;7.024;2023-10-08T08:49:05;13.50;;;5.15;;
27163;SDS011;14685;50.618;7.024;2023-10-08T08:51:34;10.63;;;4.82;;
27163;SDS011;14685;50.618;7.024;2023-10-08T08:54:02;12.48;;;5.38;;
27163;SDS011;14685;50.618;7.024;2023-10-08T08:56:36;9.88;;;4.55;;
27163;SDS011;14685;50.618;7.024;2023-10-08T08:59:07;15.10;;;6.15;;
27163;SDS011;14685;50.618;7.024;2023-10-08T09:01:38;10.90;;;5.28;;
27163;SDS011;14685;50.618;7.024;2023-10-08T09:04:06;12.48;;;5.72;;
27163;SDS011;14685;50.618;7.024;2023-10-08T09:06:34;13.32;;;5.80;;
27163;SDS011;14685;50.618;7.024;2023-10-08T09:09:04;13.52;;;6.75;;
27163;SDS011;14685;50.618;7.024;2023-10-08T09:11:50;15.43;;;6.75;;
27163;SDS011;14685;50.618;7.024;2023-10-08T09:14:19;14.20;;;6.35;;
27163;SDS011;14685;50.618;7.024;2023-10-08T09:16:53;16.15;;;6.25;;
27163;SDS011;14685;50.618;7.024;2023-10-08T09:19:20;16.23;;;5.90;;
27163;SDS011;14685;50.618;7.024;2023-10-08T09:22:01;18.48;;;7.25;;
27163;SDS011;14685;50.618;7.024;2023-10-08T09:24:36;11.48;;;5.18;;
27163;SDS011;14685;50.618;7.024;2023-10-08T09:27:04;17.33;;;6.47;;
27163;SDS011;14685;50.618;7.024;2023-10-08T09:29:41;15.52;;;6.53;;
27163;SDS011;14685;50.618;7.024;2023-10-08T09:32:09;16.35;;;6.50;;
27163;SDS011;14685;50.618;7.024;2023-10-08T09:34:37;18.15;;;6.40;;
27163;SDS011;14685;50.618;7.024;2023-10-08T09:37:04;14.57;;;6.05;;
27163;SDS011;14685;50.618;7.024;2023-10-08T09:39:31;14.95;;;5.90;;
27163;SDS011;14685;50.618;7.024;2023-10-08T09:42:02;16.70;;;5.93;;
27163;SDS011;14685;50.618;7.024;2023-10-08T09:44:33;23.95;;;6.30;;
27163;SDS011;14685;50.618;7.024;2023-10-08T09:47:03;15.55;;;5.53;;
27163;SDS011;14685;50.618;7.024;2023-10-08T09:49:32;14.30;;;6.32;;
27163;SDS011;14685;50.618;7.024;2023-10-08T09:52:06;16.85;;;6.95;;
27163;SDS011;14685;50.618;7.024;2023-10-08T09:57:37;29.88;;;11.50;;
27163;SDS011;14685;50.618;7.024;2023-10-08T10:00:05;24.80;;;8.57;;
27163;SDS011;14685;50.618;7.024;2023-10-08T10:02:41;18.02;;;6.47;;
27163;SDS011;14685;50.618;7.024;2023-10-08T10:05:10;20.85;;;6.43;;
27163;SDS011;14685;50.618;7.024;2023-10-08T10:07:42;16.17;;;5.97;;
27163;SDS011;14685;50.618;7.024;2023-10-08T10:10:28;15.07;;;6.22;;
27163;SDS011;14685;50.618;7.024;2023-10-08T10:13:09;17.13;;;6.18;;
27163;SDS011;14685;50.618;7.024;2023-10-08T10:15:37;13.25;;;5.60;;
27163;SDS011;14685;50.618;7.024;2023-10-08T10:20:45;13.05;;;5.68;;
27163;SDS011;14685;50.618;7.024;2023-10-08T10:31:42;13.02;;;5.50;;
27163;SDS011;14685;50.618;7.024;2023-10-08T10:34:17;12.52;;;5.95;;
27163;SDS011;14685;50.618;7.024;2023-10-08T10:36:45;13.98;;;5.38;;
27163;SDS011;14685;50.618;7.024;2023-10-08T10:39:18;13.75;;;5.88;;
27163;SDS011;14685;50.618;7.024;2023-10-08T10:41:59;15.02;;;6.03;;
27163;SDS011;14685;50.618;7.024;2023-10-08T10:44:28;13.35;;;5.75;;
27163;SDS011;14685;50.618;7.024;2023-10-08T10:46:56;11.45;;;5.65;;
27163;SDS011;14685;50.618;7.024;2023-10-08T10:49:51;14.05;;;5.75;;
27163;SDS011;14685;50.618;7.024;2023-10-08T10:52:41;12.88;;;5.78;;
27163;SDS011;14685;50.618;7.024;2023-10-08T10:55:19;15.48;;;6.18;;
27163;SDS011;14685;50.618;7.024;2023-10-08T10:57:58;15.52;;;6.32;;
27163;SDS011;14685;50.618;7.024;2023-10-08T11:00:41;17.08;;;6.10;;
27163;SDS011;14685;50.618;7.024;2023-10-08T11:03:09;16.05;;;5.85;;
27163;SDS011;14685;50.618;7.024;2023-10-08T11:05:52;16.75;;;6.28;;
27163;SDS011;14685;50.618;7.024;2023-10-08T11:08:22;13.57;;;6.22;;
27163;SDS011;14685;50.618;7.024;2023-10-08T11:10:49;15.48;;;6.13;;
27163;SDS011;14685;50.618;7.024;2023-10-08T11:13:19;15.15;;;5.75;;
27163;SDS011;14685;50.618;7.024;2023-10-08T11:15:50;18.52;;;6.45;;
27163;SDS011;14685;50.618;7.024;2023-10-08T11:18:21;16.55;;;7.25;;
27163;SDS011;14685;50.618;7.024;2023-10-08T11:20:50;19.15;;;6.85;;
27163;SDS011;14685;50.618;7.024;2023-10-08T11:23:34;15.98;;;6.57;;
27163;SDS011;14685;50.618;7.024;2023-10-08T11:26:03;19.55;;;6.55;;
27163;SDS011;14685;50.618;7.024;2023-10-08T11:28:33;16.00;;;6.00;;
27163;SDS011;14685;50.618;7.024;2023-10-08T11:31:10;11.38;;;5.57;;
27163;SDS011;14685;50.618;7.024;2023-10-08T11:33:38;14.93;;;6.60;;
27163;SDS011;14685;50.618;7.024;2023-10-08T11:36:07;15.02;;;6.28;;
27163;SDS011;14685;50.618;7.024;2023-10-08T11:38:54;12.82;;;5.80;;
27163;SDS011;14685;50.618;7.024;2023-10-08T11:41:28;15.90;;;6.65;;
27163;SDS011;14685;50.618;7.024;2023-10-08T11:43:56;17.15;;;6.82;;
27163;SDS011;14685;50.618;7.024;2023-10-08T11:46:28;17.17;;;6.72;;
27163;SDS011;14685;50.618;7.024;2023-10-08T11:49:05;13.02;;;5.88;;
27163;SDS011;14685;50.618;7.024;2023-10-08T11:51:33;14.48;;;6.80;;
27163;SDS011;14685;50.618;7.024;2023-10-08T11:54:01;18.80;;;7.18;;
27163;SDS011;14685;50.618;7.024;2023-10-08T11:56:28;18.02;;;6.32;;
27163;SDS011;14685;50.618;7.024;2023-10-08T11:58:56;14.75;;;5.88;;
27163;SDS011;14685;50.618;7.024;2023-10-08T12:01:24;16.45;;;6.47;;
27163;SDS011;14685;50.618;7.024;2023-10-08T12:03:51;18.40;;;6.85;;
27163;SDS011;14685;50.618;7.024;2023-10-08T12:06:18;19.00;;;6.40;;
27163;SDS011;14685;50.618;7.024;2023-10-08T12:08:46;15.55;;;6.53;;
27163;SDS011;14685;50.618;7.024;2023-10-08T12:11:16;16.23;;;5.85;;
27163;SDS011;14685;50.618;7.024;2023-10-08T12:13:43;15.48;;;6.72;;
27163;SDS011;14685;50.618;7.024;2023-10-08T12:16:14;16.00;;;6.88;;
27163;SDS011;14685;50.618;7.024;2023-10-08T12:18:48;13.93;;;5.95;;
27163;SDS011;14685;50.618;7.024;2023-10-08T12:21:20;17.80;;;6.45;;
27163;SDS011;14685;50.618;7.024;2023-10-08T12:23:48;17.50;;;5.68;;
27163;SDS011;14685;50.618;7.024;2023-10-08T12:26:17;16.45;;;6.65;;
27163;SDS011;14685;50.618;7.024;2023-10-08T12:28:46;20.65;;;6.72;;
27163;SDS011;14685;50.618;7.024;2023-10-08T12:31:15;15.63;;;6.40;;
27163;SDS011;14685;50.618;7.024;2023-10-08T12:33:43;18.23;;;6.78;;
27163;SDS011;14685;50.618;7.024;2023-10-08T12:36:10;14.50;;;6.07;;
27163;SDS011;14685;50.618;7.024;2023-10-08T12:38:39;17.42;;;6.43;;
27163;SDS011;14685;50.618;7.024;2023-10-08T12:41:10;18.48;;;7.93;;
27163;SDS011;14685;50.618;7.024;2023-10-08T12:43:39;16.80;;;6.65;;
27163;SDS011;14685;50.618;7.024;2023-10-08T12:46:12;17.83;;;6.28;;
27163;SDS011;14685;50.618;7.024;2023-10-08T12:48:45;15.90;;;7.33;;
27163;SDS011;14685;50.618;7.024;2023-10-08T12:51:15;17.73;;;6.85;;
27163;SDS011;14685;50.618;7.024;2023-10-08T12:53:42;15.80;;;7.07;;
27163;SDS011;14685;50.618;7.024;2023-10-08T12:56:17;14.43;;;6.65;;
27163;SDS011;14685;50.618;7.024;2023-10-08T12:58:58;18.15;;;6.20;;
27163;SDS011;14685;50.618;7.024;2023-10-08T13:01:25;17.00;;;6.63;;
27163;SDS011;14685;50.618;7.024;2023-10-08T13:03:55;18.02;;;7.07;;
27163;SDS011;14685;50.618;7.024;2023-10-08T13:06:34;17.25;;;6.28;;
27163;SDS011;14685;50.618;7.024;2023-10-08T13:09:04;23.27;;;6.38;;
27163;SDS011;14685;50.618;7.024;2023-10-08T13:11:39;19.98;;;6.72;;
27163;SDS011;14685;50.618;7.024;2023-10-08T13:14:07;21.17;;;6.65;;
27163;SDS011;14685;50.618;7.024;2023-10-08T13:16:35;14.45;;;5.80;;
27163;SDS011;14685;50.618;7.024;2023-10-08T13:19:04;12.02;;;5.82;;
27163;SDS011;14685;50.618;7.024;2023-10-08T13:21:34;15.15;;;6.32;;
27163;SDS011;14685;50.618;7.024;2023-10-08T13:24:03;18.83;;;6.10;;
27163;SDS011;14685;50.618;7.024;2023-10-08T13:26:36;20.08;;;5.85;;
27163;SDS011;14685;50.618;7.024;2023-10-08T13:29:05;13.00;;;5.55;;
27163;SDS011;14685;50.618;7.024;2023-10-08T13:31:32;15.05;;;6.05;;
27163;SDS011;14685;50.618;7.024;2023-10-08T13:34:03;13.40;;;5.68;;
27163;SDS011;14685;50.618;7.024;2023-10-08T13:36:35;20.85;;;7.25;;
27163;SDS011;14685;50.618;7.024;2023-10-08T13:39:05;16.02;;;5.90;;
27163;SDS011;14685;50.618;7.024;2023-10-08T13:41:37;15.93;;;6.22;;
27163;SDS011;14685;50.618;7.024;2023-10-08T13:44:05;15.77;;;5.82;;
27163;SDS011;14685;50.618;7.024;2023-10-08T13:46:33;20.90;;;6.82;;
27163;SDS011;14685;50.618;7.024;2023-10-08T13:49:05;13.52;;;5.85;;
27163;SDS011;14685;50.618;7.024;2023-10-08T13:51:36;14.55;;;5.95;;
27163;SDS011;14685;50.618;7.024;2023-10-08T13:54:05;18.92;;;6.47;;
27163;SDS011;14685;50.618;7.024;2023-10-08T13:56:33;14.23;;;5.70;;
27163;SDS011;14685;50.618;7.024;2023-10-08T13:59:04;18.25;;;5.97;;
27163;SDS011;14685;50.618;7.024;2023-10-08T14:01:41;16.98;;;6.30;;
27163;SDS011;14685;50.618;7.024;2023-10-08T14:04:19;15.93;;;5.85;;
27163;SDS011;14685;50.618;7.024;2023-10-08T14:06:47;18.15;;;6.50;;
27163;SDS011;14685;50.618;7.024;2023-10-08T14:09:19;15.43;;;6.47;;
27163;SDS011;14685;50.618;7.024;2023-10-08T14:11:48;14.43;;;5.95;;
27163;SDS011;14685;50.618;7.024;2023-10-08T14:14:20;21.67;;;6.50;;
27163;SDS011;14685;50.618;7.024;2023-10-08T14:16:51;11.10;;;5.50;;
27163;SDS011;14685;50.618;7.024;2023-10-08T14:19:26;14.70;;;6.28;;
27163;SDS011;14685;50.618;7.024;2023-10-08T14:22:06;15.93;;;5.75;;
27163;SDS011;14685;50.618;7.024;2023-10-08T14:24:35;16.38;;;6.68;;
27163;SDS011;14685;50.618;7.024;2023-10-08T14:27:05;15.80;;;5.53;;
27163;SDS011;14685;50.618;7.024;2023-10-08T14:29:38;13.82;;;5.90;;
27163;SDS011;14685;50.618;7.024;2023-10-08T14:32:13;19.83;;;5.80;;
27163;SDS011;14685;50.618;7.024;2023-10-08T14:34:42;12.18;;;5.72;;
27163;SDS011;14685;50.618;7.024;2023-10-08T14:37:21;14.90;;;6.10;;
27163;SDS011;14685;50.618;7.024;2023-10-08T14:40:08;10.45;;;5.57;;
27163;SDS011;14685;50.618;7.024;2023-10-08T14:42:55;14.23;;;5.82;;
27163;SDS011;14685;50.618;7.024;2023-10-08T14:45:27;13.10;;;5.53;;
27163;SDS011;14685;50.618;7.024;2023-10-08T14:47:58;13.15;;;5.35;;
27163;SDS011;14685;50.618;7.024;2023-10-08T14:50:26;15.90;;;6.43;;
27163;SDS011;14685;50.618;7.024;2023-10-08T14:52:58;19.33;;;6.03;;
27163;SDS011;14685;50.618;7.024;2023-10-08T14:55:32;14.50;;;6.07;;
27163;SDS011;14685;50.618;7.024;2023-10-08T14:58:02;14.82;;;5.93;;
27163;SDS011;14685;50.618;7.024;2023-10-08T15:00:36;14.82;;;6.30;;
27163;SDS011;14685;50.618;7.024;2023-10-08T15:03:05;17.83;;;6.07;;
27163;SDS011;14685;50.618;7.024;2023-10-08T15:05:33;12.70;;;5.53;;
27163;SDS011;14685;50.618;7.024;2023-10-08T15:08:04;14.93;;;6.38;;
27163;SDS011;14685;50.618;7.024;2023-10-08T15:10:37;18.55;;;6.40;;
27163;SDS011;14685;50.618;7.024;2023-10-08T15:13:04;14.68;;;6.75;;
27163;SDS011;14685;50.618;7.024;2023-10-08T15:15:31;21.35;;;7.05;;
27163;SDS011;14685;50.618;7.024;2023-10-08T15:18:01;17.30;;;7.22;;
27163;SDS011;14685;50.618;7.024;2023-10-08T15:20:28;22.20;;;6.47;;
27163;SDS011;14685;50.618;7.024;2023-10-08T15:23:00;13.02;;;5.97;;
27163;SDS011;14685;50.618;7.024;2023-10-08T15:25:27;15.45;;;6.47;;
27163;SDS011;14685;50.618;7.024;2023-10-08T15:27:54;16.38;;;6.60;;
27163;SDS011;14685;50.618;7.024;2023-10-08T15:30:21;14.93;;;6.65;;
27163;SDS011;14685;50.618;7.024;2023-10-08T15:32:48;16.60;;;6.90;;
27163;SDS011;14685;50.618;7.024;2023-10-08T15:35:17;18.30;;;7.18;;
27163;SDS011;14685;50.618;7.024;2023-10-08T15:37:51;17.25;;;6.88;;